sensor_id;sensor_type;location;lat;lon;timestamp;pressure;altitude;pressure_sealevel;temperature;humidity
6413;BME280;3239;48.714;9.472;2022-08-05T00:02:09;97848.34;;;23.26;100.00
6413;BME280;3239;48.714;9.472;2022-08-05T00:04:35;97859.84;;;22.93;100.00
6413;BME280;3239;48.714;9.472;2022-08-05T00:07:01;97859.38;;;23.10;100.00
6413;BME280;3239;48.714;9.472;2022-08-05T00:09:26;97857.50;;;23.15;100.00
6413;BME280;3239;48.714;9.472;2022-08-05T00:11:52;97853.84;;;22.99;100.00
6413;BME280;3239;48.714;9.472;2022-08-05T00:14:18;97866.25;;;22.96;100.00
6413;BME280;3239;48.714;9.472;2022-08-05T00:16:44;97868.09;;;22.91;100.00
6413;BME280;3239;48.714;9.472;2022-08-05T00:19:10;97884.25;;;22.93;100.00
6413;BME280;3239;48.714;9.472;2022-08-05T00:21:36;97879.69;;;22.86;100.00
6413;BME280;3239;48.714;9.472;2022-08-05T00:24:03;97883.13;;;22.98;100.00
6413;BME280;3239;48.714;9.472;2022-08-05T00:26:29;97883.66;;;22.94;100.00
6413;BME280;3239;48.714;9.472;2022-08-05T00:28:54;97879.41;;;22.93;100.00
6413;BME280;3239;48.714;9.472;2022-08-05T00:31:20;97884.63;;;22.87;100.00
6413;BME280;3239;48.714;9.472;2022-08-05T00:33:46;97888.06;;;22.86;100.00
6413;BME280;3239;48.714;9.472;2022-08-05T00:36:12;97890.63;;;22.82;100.00
6413;BME280;3239;48.714;9.472;2022-08-05T00:38:39;97887.22;;;22.83;100.00
6413;BME280;3239;48.714;9.472;2022-08-05T00:41:05;97881.50;;;22.81;100.00
6413;BME280;3239;48.714;9.472;2022-08-05T00:43:33;97883.47;;;22.79;100.00
6413;BME280;3239;48.714;9.472;2022-08-05T00:45:59;97878.06;;;22.69;100.00
6413;BME280;3239;48.714;9.472;2022-08-05T00:48:25;97874.66;;;22.71;100.00
6413;BME280;3239;48.714;9.472;2022-08-05T00:50:51;97868.72;;;22.65;100.00
6413;BME280;3239;48.714;9.472;2022-08-05T00:53:21;97877.22;;;22.67;100.00
6413;BME280;3239;48.714;9.472;2022-08-05T00:55:47;97868.38;;;22.59;100.00
6413;BME280;3239;48.714;9.472;2022-08-05T00:58:15;97865.97;;;22.53;100.00
6413;BME280;3239;48.714;9.472;2022-08-05T01:00:45;97873.75;;;22.55;100.00
6413;BME280;3239;48.714;9.472;2022-08-05T01:03:12;97897.47;;;22.19;100.00
6413;BME280;3239;48.714;9.472;2022-08-05T01:05:38;97906.34;;;22.16;100.00
6413;BME280;3239;48.714;9.472;2022-08-05T01:08:04;97903.53;;;22.27;100.00
6413;BME280;3239;48.714;9.472;2022-08-05T01:10:51;97913.50;;;22.30;100.00
6413;BME280;3239;48.714;9.472;2022-08-05T01:16:08;97918.31;;;22.41;100.00
6413;BME280;3239;48.714;9.472;2022-08-05T01:18:42;97913.09;;;22.36;100.00
6413;BME280;3239;48.714;9.472;2022-08-05T01:29:51;98018.84;;;21.51;100.00
6413;BME280;3239;48.714;9.472;2022-08-05T01:32:22;98027.03;;;21.70;100.00
6413;BME280;3239;48.714;9.472;2022-08-05T01:35:08;98041.72;;;21.71;100.00
6413;BME280;3239;48.714;9.472;2022-08-05T01:37:53;98036.94;;;21.62;100.00
6413;BME280;3239;48.714;9.472;2022-08-05T01:40:25;98042.38;;;21.60;100.00
6413;BME280;3239;48.714;9.472;2022-08-05T01:42:54;98058.13;;;21.55;100.00
6413;BME280;3239;48.714;9.472;2022-08-05T01:45:22;98061.31;;;21.61;100.00
6413;BME280;3239;48.714;9.472;2022-08-05T01:47:50;98064.94;;;21.64;100.00
6413;BME280;3239;48.714;9.472;2022-08-05T01:50:25;98050.88;;;21.62;100.00
6413;BME280;3239;48.714;9.472;2022-08-05T01:52:53;98037.97;;;21.78;100.00
6413;BME280;3239;48.714;9.472;2022-08-05T01:55:22;98044.50;;;21.82;100.00
6413;BME280;3239;48.714;9.472;2022-08-05T01:57:51;98048.03;;;21.83;100.00
6413;BME280;3239;48.714;9.472;2022-08-05T02:00:18;98059.13;;;21.60;100.00
6413;BME280;3239;48.714;9.472;2022-08-05T02:02:55;98055.50;;;21.69;100.00
6413;BME280;3239;48.714;9.472;2022-08-05T02:05:27;98047.88;;;21.69;100.00
6413;BME280;3239;48.714;9.472;2022-08-05T02:07:56;98044.63;;;21.73;100.00
6413;BME280;3239;48.714;9.472;2022-08-05T02:10:22;98068.03;;;21.47;100.00
6413;BME280;3239;48.714;9.472;2022-08-05T02:12:56;98073.41;;;21.22;100.00
6413;BME280;3239;48.714;9.472;2022-08-05T02:15:34;98079.06;;;21.45;100.00
6413;BME280;3239;48.714;9.472;2022-08-05T02:18:11;98097.25;;;21.46;100.00
6413;BME280;3239;48.714;9.472;2022-08-05T02:21:11;98095.69;;;21.54;100.00
6413;BME280;3239;48.714;9.472;2022-08-05T02:23:40;98096.91;;;21.51;100.00
6413;BME280;3239;48.714;9.472;2022-08-05T02:26:09;98088.84;;;21.67;100.00
6413;BME280;3239;48.714;9.472;2022-08-05T02:28:41;98094.28;;;21.65;100.00
6413;BME280;3239;48.714;9.472;2022-08-05T02:31:16;98106.56;;;21.71;100.00
6413;BME280;3239;48.714;9.472;2022-08-05T02:33:50;98114.72;;;21.79;100.00
6413;BME280;3239;48.714;9.472;2022-08-05T02:36:19;98124.41;;;21.78;100.00
6413;BME280;3239;48.714;9.472;2022-08-05T02:38:48;98134.38;;;21.81;100.00
6413;BME280;3239;48.714;9.472;2022-08-05T02:41:15;98142.00;;;21.80;100.00
6413;BME280;3239;48.714;9.472;2022-08-05T02:43:45;98143.47;;;21.81;100.00
6413;BME280;3239;48.714;9.472;2022-08-05T02:46:14;98129.91;;;21.87;100.00
6413;BME280;3239;48.714;9.472;2022-08-05T02:48:42;98126.75;;;21.93;100.00
6413;BME280;3239;48.714;9.472;2022-08-05T02:51:08;98108.34;;;21.99;100.00
6413;BME280;3239;48.714;9.472;2022-08-05T02:53:37;98115.28;;;21.98;100.00
6413;BME280;3239;48.714;9.472;2022-08-05T02:56:04;98110.78;;;21.93;100.00
6413;BME280;3239;48.714;9.472;2022-08-05T02:58:31;98102.84;;;21.90;100.00
6413;BME280;3239;48.714;9.472;2022-08-05T03:01:00;98106.03;;;21.96;100.00
6413;BME280;3239;48.714;9.472;2022-08-05T03:03:28;98107.13;;;21.91;100.00
6413;BME280;3239;48.714;9.472;2022-08-05T03:05:55;98110.41;;;21.99;100.00
6413;BME280;3239;48.714;9.472;2022-08-05T03:08:23;98122.38;;;21.90;100.00
6413;BME280;3239;48.714;9.472;2022-08-05T03:10:49;98146.03;;;21.77;100.00
6413;BME280;3239;48.714;9.472;2022-08-05T03:13:16;98149.50;;;21.78;100.00
6413;BME280;3239;48.714;9.472;2022-08-05T03:15:44;98156.47;;;21.88;100.00
6413;BME280;3239;48.714;9.472;2022-08-05T03:18:11;98151.97;;;21.83;100.00
6413;BME280;3239;48.714;9.472;2022-08-05T03:20:37;98158.25;;;21.84;100.00
6413;BME280;3239;48.714;9.472;2022-08-05T03:23:05;98161.06;;;21.84;100.00
6413;BME280;3239;48.714;9.472;2022-08-05T03:25:33;98153.44;;;21.84;100.00
6413;BME280;3239;48.714;9.472;2022-08-05T03:28:01;98137.88;;;21.81;100.00
6413;BME280;3239;48.714;9.472;2022-08-05T03:30:29;98122.75;;;21.84;100.00
6413;BME280;3239;48.714;9.472;2022-08-05T03:33:03;98108.31;;;21.88;100.00
6413;BME280;3239;48.714;9.472;2022-08-05T03:35:29;98078.72;;;21.83;100.00
6413;BME280;3239;48.714;9.472;2022-08-05T03:37:58;98096.75;;;21.70;100.00
6413;BME280;3239;48.714;9.472;2022-08-05T03:40:25;98123.25;;;21.60;100.00
6413;BME280;3239;48.714;9.472;2022-08-05T03:42:51;98140.44;;;21.56;100.00
6413;BME280;3239;48.714;9.472;2022-08-05T03:45:17;98144.91;;;21.50;100.00
6413;BME280;3239;48.714;9.472;2022-08-05T03:47:43;98141.38;;;21.49;100.00
6413;BME280;3239;48.714;9.472;2022-08-05T03:50:09;98138.38;;;21.57;100.00
6413;BME280;3239;48.714;9.472;2022-08-05T03:52:56;98146.56;;;21.43;100.00
6413;BME280;3239;48.714;9.472;2022-08-05T03:55:36;98152.00;;;21.41;100.00
6413;BME280;3239;48.714;9.472;2022-08-05T03:58:05;98169.81;;;21.36;100.00
6413;BME280;3239;48.714;9.472;2022-08-05T04:00:36;98173.69;;;21.43;100.00
6413;BME280;3239;48.714;9.472;2022-08-05T04:03:04;98181.22;;;21.40;100.00
6413;BME280;3239;48.714;9.472;2022-08-05T04:05:33;98166.47;;;21.28;100.00
6413;BME280;3239;48.714;9.472;2022-08-05T04:08:02;98186.31;;;21.23;100.00
6413;BME280;3239;48.714;9.472;2022-08-05T04:10:29;98196.72;;;21.22;100.00
6413;BME280;3239;48.714;9.472;2022-08-05T04:12:56;98196.84;;;21.24;100.00
6413;BME280;3239;48.714;9.472;2022-08-05T04:15:21;98195.75;;;21.18;100.00
6413;BME280;3239;48.714;9.472;2022-08-05T04:17:47;98200.56;;;21.17;100.00
6413;BME280;3239;48.714;9.472;2022-08-05T04:20:22;98203.22;;;21.15;100.00
6413;BME280;3239;48.714;9.472;2022-08-05T04:22:48;98212.97;;;21.05;100.00
6413;BME280;3239;48.714;9.472;2022-08-05T04:25:14;98220.41;;;21.12;100.00
6413;BME280;3239;48.714;9.472;2022-08-05T04:27:40;98224.66;;;21.13;100.00
6413;BME280;3239;48.714;9.472;2022-08-05T04:30:08;98232.16;;;21.10;100.00
6413;BME280;3239;48.714;9.472;2022-08-05T04:32:34;98214.66;;;21.19;100.00
6413;BME280;3239;48.714;9.472;2022-08-05T04:35:00;98222.78;;;21.06;100.00
6413;BME280;3239;48.714;9.472;2022-08-05T04:37:26;98238.22;;;20.97;100.00
6413;BME280;3239;48.714;9.472;2022-08-05T04:39:52;98250.84;;;20.89;100.00
6413;BME280;3239;48.714;9.472;2022-08-05T04:42:17;98260.06;;;21.01;100.00
6413;BME280;3239;48.714;9.472;2022-08-05T04:44:43;98273.66;;;21.06;100.00
6413;BME280;3239;48.714;9.472;2022-08-05T04:47:09;98251.94;;;21.14;100.00
6413;BME280;3239;48.714;9.472;2022-08-05T04:49:35;98219.75;;;21.23;100.00
6413;BME280;3239;48.714;9.472;2022-08-05T04:52:00;98202.66;;;21.38;100.00
6413;BME280;3239;48.714;9.472;2022-08-05T04:54:26;98197.22;;;21.40;100.00
6413;BME280;3239;48.714;9.472;2022-08-05T04:56:53;98213.38;;;21.53;100.00
6413;BME280;3239;48.714;9.472;2022-08-05T04:59:20;98238.66;;;21.24;100.00
6413;BME280;3239;48.714;9.472;2022-08-05T05:01:50;98260.78;;;21.01;100.00
6413;BME280;3239;48.714;9.472;2022-08-05T05:04:16;98273.34;;;21.12;100.00
6413;BME280;3239;48.714;9.472;2022-08-05T05:06:42;98280.91;;;21.21;100.00
6413;BME280;3239;48.714;9.472;2022-08-05T05:09:11;98290.25;;;21.35;100.00
6413;BME280;3239;48.714;9.472;2022-08-05T05:11:36;98289.97;;;21.31;100.00
6413;BME280;3239;48.714;9.472;2022-08-05T05:14:02;98295.44;;;21.50;100.00
6413;BME280;3239;48.714;9.472;2022-08-05T05:16:28;98297.19;;;21.55;100.00
6413;BME280;3239;48.714;9.472;2022-08-05T05:18:54;98300.50;;;21.63;100.00
6413;BME280;3239;48.714;9.472;2022-08-05T05:21:20;98297.22;;;21.45;100.00
6413;BME280;3239;48.714;9.472;2022-08-05T05:23:46;98323.22;;;21.38;100.00
6413;BME280;3239;48.714;9.472;2022-08-05T05:26:11;98345.41;;;21.27;100.00
6413;BME280;3239;48.714;9.472;2022-08-05T05:28:37;98368.91;;;21.24;100.00
6413;BME280;3239;48.714;9.472;2022-08-05T05:31:03;98363.69;;;21.49;100.00
6413;BME280;3239;48.714;9.472;2022-08-05T05:33:29;98350.84;;;21.65;100.00
6413;BME280;3239;48.714;9.472;2022-08-05T05:35:54;98347.75;;;21.61;100.00
6413;BME280;3239;48.714;9.472;2022-08-05T05:38:20;98337.97;;;21.50;100.00
6413;BME280;3239;48.714;9.472;2022-08-05T05:40:46;98320.84;;;21.44;100.00
6413;BME280;3239;48.714;9.472;2022-08-05T05:43:11;98326.00;;;21.38;100.00
6413;BME280;3239;48.714;9.472;2022-08-05T05:45:37;98348.72;;;21.44;100.00
6413;BME280;3239;48.714;9.472;2022-08-05T05:48:04;98362.88;;;21.58;100.00
6413;BME280;3239;48.714;9.472;2022-08-05T05:50:33;98381.59;;;21.76;100.00
6413;BME280;3239;48.714;9.472;2022-08-05T05:53:00;98372.34;;;21.83;100.00
6413;BME280;3239;48.714;9.472;2022-08-05T05:55:25;98384.81;;;22.03;100.00
6413;BME280;3239;48.714;9.472;2022-08-05T05:57:51;98375.66;;;22.12;100.00
6413;BME280;3239;48.714;9.472;2022-08-05T06:00:19;98345.34;;;22.18;100.00
6413;BME280;3239;48.714;9.472;2022-08-05T06:02:46;98337.53;;;22.38;100.00
6413;BME280;3239;48.714;9.472;2022-08-05T06:05:15;98338.84;;;22.46;100.00
6413;BME280;3239;48.714;9.472;2022-08-05T06:07:42;98337.72;;;22.72;100.00
6413;BME280;3239;48.714;9.472;2022-08-05T06:10:09;98320.63;;;22.89;100.00
6413;BME280;3239;48.714;9.472;2022-08-05T06:12:36;98320.53;;;23.10;100.00
6413;BME280;3239;48.714;9.472;2022-08-05T06:15:05;98304.38;;;23.32;100.00
6413;BME280;3239;48.714;9.472;2022-08-05T06:17:33;98299.59;;;23.69;100.00
6413;BME280;3239;48.714;9.472;2022-08-05T06:20:00;98293.88;;;23.90;100.00
6413;BME280;3239;48.714;9.472;2022-08-05T06:22:29;98278.38;;;24.00;100.00
6413;BME280;3239;48.714;9.472;2022-08-05T06:24:56;98274.03;;;24.22;100.00
6413;BME280;3239;48.714;9.472;2022-08-05T06:27:22;98262.09;;;24.47;100.00
6413;BME280;3239;48.714;9.472;2022-08-05T06:29:47;98252.56;;;24.52;100.00
6413;BME280;3239;48.714;9.472;2022-08-05T06:32:13;98237.94;;;24.78;100.00
6413;BME280;3239;48.714;9.472;2022-08-05T06:34:39;98228.75;;;25.30;100.00
6413;BME280;3239;48.714;9.472;2022-08-05T06:37:05;98197.22;;;25.72;100.00
6413;BME280;3239;48.714;9.472;2022-08-05T06:39:31;98192.56;;;26.05;100.00
6413;BME280;3239;48.714;9.472;2022-08-05T06:41:59;98186.63;;;26.44;100.00
6413;BME280;3239;48.714;9.472;2022-08-05T06:44:28;98192.69;;;26.38;100.00
6413;BME280;3239;48.714;9.472;2022-08-05T06:46:55;98171.09;;;27.36;100.00
6413;BME280;3239;48.714;9.472;2022-08-05T06:49:21;98161.41;;;27.74;100.00
6413;BME280;3239;48.714;9.472;2022-08-05T06:51:47;98156.66;;;28.31;100.00
6413;BME280;3239;48.714;9.472;2022-08-05T06:54:12;98160.22;;;27.96;100.00
6413;BME280;3239;48.714;9.472;2022-08-05T06:56:38;98153.44;;;27.68;100.00
6413;BME280;3239;48.714;9.472;2022-08-05T06:59:06;98138.78;;;28.42;100.00
6413;BME280;3239;48.714;9.472;2022-08-05T07:01:32;98130.31;;;28.42;100.00
6413;BME280;3239;48.714;9.472;2022-08-05T07:03:58;98120.47;;;29.42;100.00
6413;BME280;3239;48.714;9.472;2022-08-05T07:06:24;98121.97;;;29.86;95.83
6413;BME280;3239;48.714;9.472;2022-08-05T07:08:50;98114.88;;;29.64;93.99
6413;BME280;3239;48.714;9.472;2022-08-05T07:11:16;98120.44;;;30.28;87.72
6413;BME280;3239;48.714;9.472;2022-08-05T07:13:42;98127.28;;;29.76;91.47
6413;BME280;3239;48.714;9.472;2022-08-05T07:16:28;98128.50;;;29.50;90.03
6413;BME280;3239;48.714;9.472;2022-08-05T07:19:12;98132.50;;;29.43;90.02
6413;BME280;3239;48.714;9.472;2022-08-05T07:21:38;98120.28;;;30.22;88.42
6413;BME280;3239;48.714;9.472;2022-08-05T07:24:05;98122.75;;;29.89;89.64
6413;BME280;3239;48.714;9.472;2022-08-05T07:26:31;98119.53;;;30.69;81.83
6413;BME280;3239;48.714;9.472;2022-08-05T07:28:57;98114.06;;;31.28;79.11
6413;BME280;3239;48.714;9.472;2022-08-05T07:31:23;98132.63;;;31.62;76.22
6413;BME280;3239;48.714;9.472;2022-08-05T07:33:48;98134.06;;;31.91;70.17
6413;BME280;3239;48.714;9.472;2022-08-05T07:36:14;98127.38;;;31.78;67.71
6413;BME280;3239;48.714;9.472;2022-08-05T07:38:40;98132.22;;;31.46;70.50
6413;BME280;3239;48.714;9.472;2022-08-05T07:41:09;98143.75;;;32.43;64.76
6413;BME280;3239;48.714;9.472;2022-08-05T07:43:35;98148.06;;;31.55;66.79
6413;BME280;3239;48.714;9.472;2022-08-05T07:46:01;98137.22;;;30.95;68.66
6413;BME280;3239;48.714;9.472;2022-08-05T07:48:27;98155.19;;;31.05;69.10
6413;BME280;3239;48.714;9.472;2022-08-05T07:50:53;98147.94;;;31.24;67.71
6413;BME280;3239;48.714;9.472;2022-08-05T07:53:18;98154.38;;;30.75;67.63
6413;BME280;3239;48.714;9.472;2022-08-05T07:55:44;98156.66;;;31.32;67.56
6413;BME280;3239;48.714;9.472;2022-08-05T07:58:10;98153.50;;;31.75;66.53
6413;BME280;3239;48.714;9.472;2022-08-05T08:00:36;98160.06;;;32.13;59.93
6413;BME280;3239;48.714;9.472;2022-08-05T08:03:02;98151.38;;;32.68;58.04
6413;BME280;3239;48.714;9.472;2022-08-05T08:05:28;98153.09;;;31.59;59.99
6413;BME280;3239;48.714;9.472;2022-08-05T08:07:53;98164.78;;;31.45;56.62
6413;BME280;3239;48.714;9.472;2022-08-05T08:10:22;98161.88;;;31.71;58.45
6413;BME280;3239;48.714;9.472;2022-08-05T08:12:48;98168.16;;;31.40;57.05
6413;BME280;3239;48.714;9.472;2022-08-05T08:15:15;98165.34;;;31.40;56.14
6413;BME280;3239;48.714;9.472;2022-08-05T08:17:42;98154.91;;;32.03;54.54
6413;BME280;3239;48.714;9.472;2022-08-05T08:20:08;98151.38;;;32.34;53.75
6413;BME280;3239;48.714;9.472;2022-08-05T08:22:34;98156.53;;;32.44;51.51
6413;BME280;3239;48.714;9.472;2022-08-05T08:25:00;98151.69;;;32.82;50.77
6413;BME280;3239;48.714;9.472;2022-08-05T08:27:26;98146.31;;;32.62;49.92
6413;BME280;3239;48.714;9.472;2022-08-05T08:29:52;98160.91;;;32.80;51.81
6413;BME280;3239;48.714;9.472;2022-08-05T08:32:17;98155.63;;;34.25;48.93
6413;BME280;3239;48.714;9.472;2022-08-05T08:34:43;98153.25;;;33.66;45.17
6413;BME280;3239;48.714;9.472;2022-08-05T08:37:09;98148.19;;;32.85;47.71
6413;BME280;3239;48.714;9.472;2022-08-05T08:39:35;98154.34;;;33.07;47.98
6413;BME280;3239;48.714;9.472;2022-08-05T08:42:01;98153.56;;;33.05;48.57
6413;BME280;3239;48.714;9.472;2022-08-05T08:44:31;98150.78;;;32.73;48.61
6413;BME280;3239;48.714;9.472;2022-08-05T08:46:57;98158.69;;;33.12;47.74
6413;BME280;3239;48.714;9.472;2022-08-05T08:49:25;98157.09;;;33.41;46.69
6413;BME280;3239;48.714;9.472;2022-08-05T08:52:11;98163.63;;;33.12;48.71
6413;BME280;3239;48.714;9.472;2022-08-05T08:54:38;98152.41;;;33.57;49.04
6413;BME280;3239;48.714;9.472;2022-08-05T08:57:05;98144.38;;;33.46;48.20
6413;BME280;3239;48.714;9.472;2022-08-05T08:59:32;98149.81;;;34.17;45.88
6413;BME280;3239;48.714;9.472;2022-08-05T09:02:00;98147.66;;;33.70;44.17
6413;BME280;3239;48.714;9.472;2022-08-05T09:04:28;98132.22;;;33.39;44.93
6413;BME280;3239;48.714;9.472;2022-08-05T09:06:54;98131.19;;;34.57;44.64
6413;BME280;3239;48.714;9.472;2022-08-05T09:09:20;98127.31;;;33.85;45.58
6413;BME280;3239;48.714;9.472;2022-08-05T09:11:46;98131.94;;;34.10;43.10
6413;BME280;3239;48.714;9.472;2022-08-05T09:14:12;98133.16;;;33.95;42.15
6413;BME280;3239;48.714;9.472;2022-08-05T09:16:38;98130.06;;;33.79;42.35
6413;BME280;3239;48.714;9.472;2022-08-05T09:19:06;98117.97;;;33.79;43.01
6413;BME280;3239;48.714;9.472;2022-08-05T09:21:33;98117.03;;;34.61;42.58
6413;BME280;3239;48.714;9.472;2022-08-05T09:24:08;98097.78;;;33.21;43.54
6413;BME280;3239;48.714;9.472;2022-08-05T09:26:35;98104.34;;;32.57;46.88
6413;BME280;3239;48.714;9.472;2022-08-05T09:29:05;98094.63;;;32.68;45.36
6413;BME280;3239;48.714;9.472;2022-08-05T09:31:33;98093.56;;;31.86;47.88
6413;BME280;3239;48.714;9.472;2022-08-05T09:34:07;98097.63;;;30.69;49.66
6413;BME280;3239;48.714;9.472;2022-08-05T09:36:48;98099.09;;;30.98;50.82
6413;BME280;3239;48.714;9.472;2022-08-05T09:39:16;98103.94;;;30.93;54.08
6413;BME280;3239;48.714;9.472;2022-08-05T09:41:56;98090.59;;;31.23;51.28
6413;BME280;3239;48.714;9.472;2022-08-05T09:47:13;98089.03;;;30.42;53.79
6413;BME280;3239;48.714;9.472;2022-08-05T09:52:30;98077.16;;;32.46;50.24
6413;BME280;3239;48.714;9.472;2022-08-05T09:55:10;98070.97;;;33.28;46.35
6413;BME280;3239;48.714;9.472;2022-08-05T09:57:44;98077.81;;;33.57;44.92
6413;BME280;3239;48.714;9.472;2022-08-05T10:00:16;98070.47;;;33.42;44.02
6413;BME280;3239;48.714;9.472;2022-08-05T10:02:48;98070.44;;;34.35;41.67
6413;BME280;3239;48.714;9.472;2022-08-05T10:05:18;98060.22;;;32.85;44.77
6413;BME280;3239;48.714;9.472;2022-08-05T10:07:56;98058.81;;;32.51;44.23
6413;BME280;3239;48.714;9.472;2022-08-05T10:10:55;98061.00;;;34.22;42.05
6413;BME280;3239;48.714;9.472;2022-08-05T10:13:31;98063.56;;;33.53;42.15
6413;BME280;3239;48.714;9.472;2022-08-05T10:15:58;98063.38;;;31.69;44.34
6413;BME280;3239;48.714;9.472;2022-08-05T10:18:25;98064.97;;;32.75;43.37
6413;BME280;3239;48.714;9.472;2022-08-05T10:20:54;98060.84;;;33.21;43.84
6413;BME280;3239;48.714;9.472;2022-08-05T10:23:26;98061.38;;;33.10;42.57
6413;BME280;3239;48.714;9.472;2022-08-05T10:25:58;98058.91;;;33.30;41.90
6413;BME280;3239;48.714;9.472;2022-08-05T10:28:25;98061.19;;;32.62;43.31
6413;BME280;3239;48.714;9.472;2022-08-05T10:30:52;98062.81;;;32.38;42.74
6413;BME280;3239;48.714;9.472;2022-08-05T10:33:19;98058.69;;;33.20;43.52
6413;BME280;3239;48.714;9.472;2022-08-05T10:35:49;98059.22;;;33.50;42.24
6413;BME280;3239;48.714;9.472;2022-08-05T10:38:19;98055.97;;;33.26;43.01
6413;BME280;3239;48.714;9.472;2022-08-05T10:46:04;98055.06;;;32.40;45.65
6413;BME280;3239;48.714;9.472;2022-08-05T10:51:14;98049.38;;;33.13;42.25
6413;BME280;3239;48.714;9.472;2022-08-05T10:56:24;98053.72;;;33.62;41.11
6413;BME280;3239;48.714;9.472;2022-08-05T11:01:39;98045.53;;;33.38;41.64
6413;BME280;3239;48.714;9.472;2022-08-05T11:04:21;98050.56;;;34.37;40.33
6413;BME280;3239;48.714;9.472;2022-08-05T11:09:35;98054.22;;;33.07;40.98
6413;BME280;3239;48.714;9.472;2022-08-05T11:12:01;98051.38;;;33.05;41.68
6413;BME280;3239;48.714;9.472;2022-08-05T11:17:33;98049.63;;;31.85;44.03
6413;BME280;3239;48.714;9.472;2022-08-05T11:20:04;98051.59;;;31.79;44.11
6413;BME280;3239;48.714;9.472;2022-08-05T11:22:48;98047.63;;;31.92;45.18
6413;BME280;3239;48.714;9.472;2022-08-05T11:25:32;98060.47;;;31.95;45.26
6413;BME280;3239;48.714;9.472;2022-08-05T11:33:35;98050.44;;;32.57;45.94
6413;BME280;3239;48.714;9.472;2022-08-05T11:36:06;98051.13;;;31.90;44.03
6413;BME280;3239;48.714;9.472;2022-08-05T11:41:20;98052.84;;;31.15;45.80
6413;BME280;3239;48.714;9.472;2022-08-05T11:44:11;98064.69;;;31.07;46.32
6413;BME280;3239;48.714;9.472;2022-08-05T11:46:53;98064.09;;;31.38;46.12
6413;BME280;3239;48.714;9.472;2022-08-05T11:49:21;98055.75;;;31.74;45.13
6413;BME280;3239;48.714;9.472;2022-08-05T11:51:50;98056.88;;;31.63;46.37
6413;BME280;3239;48.714;9.472;2022-08-05T11:54:29;98051.25;;;31.94;46.33
6413;BME280;3239;48.714;9.472;2022-08-05T11:56:57;98055.91;;;32.13;44.21
6413;BME280;3239;48.714;9.472;2022-08-05T11:59:28;98054.94;;;31.71;45.34
6413;BME280;3239;48.714;9.472;2022-08-05T12:02:04;98049.00;;;31.59;47.17
6413;BME280;3239;48.714;9.472;2022-08-05T12:04:44;98041.34;;;31.66;46.18
6413;BME280;3239;48.714;9.472;2022-08-05T12:07:13;98048.66;;;31.45;45.80
6413;BME280;3239;48.714;9.472;2022-08-05T12:09:44;98052.50;;;31.28;46.17
6413;BME280;3239;48.714;9.472;2022-08-05T12:12:12;98049.16;;;31.36;45.55
6413;BME280;3239;48.714;9.472;2022-08-05T12:14:42;98052.50;;;31.28;45.46
6413;BME280;3239;48.714;9.472;2022-08-05T12:17:15;98039.47;;;31.17;45.95
6413;BME280;3239;48.714;9.472;2022-08-05T12:19:49;98039.53;;;31.19;45.68
6413;BME280;3239;48.714;9.472;2022-08-05T12:22:19;98041.63;;;32.07;47.44
6413;BME280;3239;48.714;9.472;2022-08-05T12:24:49;98043.78;;;31.77;44.26
6413;BME280;3239;48.714;9.472;2022-08-05T12:27:27;98031.94;;;31.87;43.62
6413;BME280;3239;48.714;9.472;2022-08-05T12:30:05;98027.66;;;32.17;43.83
6413;BME280;3239;48.714;9.472;2022-08-05T12:32:44;98026.16;;;32.48;44.55
6413;BME280;3239;48.714;9.472;2022-08-05T12:35:10;98027.00;;;32.92;45.06
6413;BME280;3239;48.714;9.472;2022-08-05T12:37:37;98023.97;;;32.44;41.48
6413;BME280;3239;48.714;9.472;2022-08-05T12:40:08;98030.28;;;33.18;43.00
6413;BME280;3239;48.714;9.472;2022-08-05T12:42:35;98027.66;;;32.53;40.20
6413;BME280;3239;48.714;9.472;2022-08-05T12:45:07;98007.84;;;32.55;41.16
6413;BME280;3239;48.714;9.472;2022-08-05T12:47:33;98017.97;;;32.28;40.52
6413;BME280;3239;48.714;9.472;2022-08-05T12:50:10;98011.41;;;32.20;41.32
6413;BME280;3239;48.714;9.472;2022-08-05T12:52:36;98012.06;;;32.18;41.54
6413;BME280;3239;48.714;9.472;2022-08-05T12:55:23;98009.34;;;31.91;40.86
6413;BME280;3239;48.714;9.472;2022-08-05T12:57:55;97998.38;;;32.42;41.09
6413;BME280;3239;48.714;9.472;2022-08-05T13:00:24;98000.63;;;32.85;39.79
6413;BME280;3239;48.714;9.472;2022-08-05T13:02:52;97998.53;;;32.88;38.67
6413;BME280;3239;48.714;9.472;2022-08-05T13:05:19;97997.91;;;32.54;38.95
6413;BME280;3239;48.714;9.472;2022-08-05T13:07:45;97999.16;;;32.82;39.90
6413;BME280;3239;48.714;9.472;2022-08-05T13:10:13;97996.66;;;33.02;38.06
6413;BME280;3239;48.714;9.472;2022-08-05T13:12:42;97987.69;;;33.18;37.05
6413;BME280;3239;48.714;9.472;2022-08-05T13:15:13;97984.56;;;33.00;36.97
6413;BME280;3239;48.714;9.472;2022-08-05T13:17:39;97983.75;;;32.93;36.74
6413;BME280;3239;48.714;9.472;2022-08-05T13:20:09;97981.72;;;32.60;36.68
6413;BME280;3239;48.714;9.472;2022-08-05T13:22:38;97980.56;;;33.15;37.96
6413;BME280;3239;48.714;9.472;2022-08-05T13:25:07;97977.66;;;33.13;36.70
6413;BME280;3239;48.714;9.472;2022-08-05T13:27:40;97980.19;;;33.36;37.31
6413;BME280;3239;48.714;9.472;2022-08-05T13:30:10;97962.56;;;33.00;38.08
6413;BME280;3239;48.714;9.472;2022-08-05T13:32:37;97960.31;;;33.36;36.07
6413;BME280;3239;48.714;9.472;2022-08-05T13:35:04;97968.44;;;33.58;37.26
6413;BME280;3239;48.714;9.472;2022-08-05T13:37:30;97962.03;;;33.10;37.31
6413;BME280;3239;48.714;9.472;2022-08-05T13:39:58;97962.44;;;32.55;38.17
6413;BME280;3239;48.714;9.472;2022-08-05T13:42:24;97957.50;;;32.55;38.45
6413;BME280;3239;48.714;9.472;2022-08-05T13:44:52;97949.19;;;32.67;38.87
6413;BME280;3239;48.714;9.472;2022-08-05T13:47:19;97954.94;;;33.11;39.89
6413;BME280;3239;48.714;9.472;2022-08-05T13:49:45;97947.13;;;32.70;37.94
6413;BME280;3239;48.714;9.472;2022-08-05T13:52:12;97945.44;;;32.55;38.45
6413;BME280;3239;48.714;9.472;2022-08-05T13:54:39;97937.19;;;32.69;38.21
6413;BME280;3239;48.714;9.472;2022-08-05T13:57:09;97945.09;;;33.18;37.72
6413;BME280;3239;48.714;9.472;2022-08-05T13:59:37;97932.13;;;33.05;37.32
6413;BME280;3239;48.714;9.472;2022-08-05T14:02:05;97931.16;;;33.34;38.35
6413;BME280;3239;48.714;9.472;2022-08-05T14:04:34;97926.94;;;33.37;38.18
6413;BME280;3239;48.714;9.472;2022-08-05T14:07:21;97920.06;;;33.06;36.93
6413;BME280;3239;48.714;9.472;2022-08-05T14:09:47;97920.53;;;33.36;38.03
6413;BME280;3239;48.714;9.472;2022-08-05T14:12:13;97922.38;;;33.67;39.49